Breeze Hill, South Carolina
Current Conditions -  °F | °C
As of 2:53 AM on Friday 19 Dec 2014 (Local Time) from KDNL Reporting Station
Clear Clear  
Wind Chill: 46°   Ceiling: Unl
Heat Index: 49°   Visibility: 10mi
Dew Point: 36°   Wind: 7mph
Humidity: 61%   Direction: 290°WNW
Pressure: 30.1"   Gusts: NA
Location:  33.5159°N, 81.8379°W
Report Text: KDNL 190753Z AUTO 29006KT 10SM CLR 09/02 A3010 RMK AO2 SLP191 T00940022
Loading
Personal Weather Stations






























Interactive Weather Map New forecast layout! Learn more

10-Day Weather Forecast

Advertisements
Track Severe Weather on mobile